Terminal Aerodrome Forecast
Issued by NWS

Current Version | Previous Version | Graphics & Text | Print | Product List | Glossary On
Versions: 1 2 3 4 5 6 7 8 9 10 11 12 13 14 15 16 17
249
FTUS41 KILN 171728
TAFLUK
TAF
KLUK 171728Z 1718/1818 20009KT P6SM FEW250
     FM180000 00000KT P6SM FEW250
     FM180600 00000KT 3SM BR SKC
     FM180800 00000KT 1/4SM FG VV002
     FM181200 VRB03KT 3SM BR FEW002
     FM181400 18006KT P6SM SKC=

USA.gov is the U.S. government's official web portal to all federal, state and local government web resources and services.